Nearby METAR Reports

 

KVCT - Victoria, Texas, USA
Distance from station: E 12mi, 20km
Updated: Thu, 17-Jun-2021 3:51pm CDT
Few Clouds
Few Clouds
 Wind from ENE
Wind: ENE 12 mph , 19 km/h
Temperature: 93°F , 34°C
Heat Index: 103°F , 39°C
Dew Point: 73°F , 23°C
Humidity: 53%
Barometer: 29.92 inHg , 1013.2 hPa
Clouds: Few Clouds
Visibility: 10 miles , 16 km
Cloud details: Few Clouds 5500 ft
2021/06/17 20:51 KVCT 172051Z 07010KT 10SM FEW055 34/23 A2992 RMK AO2 SLP131 T03390228 56017
KPKV - Port Lavaca, Texas, USA
Distance from station: ESE 31mi, 50km
Updated: Thu, 17-Jun-2021 4:15pm CDT
Clear
Clear
 Wind from SE
Wind: SE 10 mph , 17 km/h
Temperature: 91°F , 33°C
Heat Index: 102°F , 39°C
Dew Point: 75°F , 24°C
Humidity: 59%
Barometer: 29.93 inHg , 1013.5 hPa
Clouds: Clear
Visibility: 10 miles , 16 km
2021/06/17 21:15 KPKV 172115Z AUTO 13009KT 10SM CLR 33/24 A2993 RMK AO2 T03340239
 
KT20 - Gonzales Muni, Texas, USA
Distance from station: NNW 50mi, 81km
Updated: Thu, 17-Jun-2021 4:15pm CDT
Partly cloudy
Partly cloudy
 Wind from E
Wind: E 3 mph , 6 km/h
Temperature: 93°F , 34°C
Heat Index: 99°F , 37°C
Dew Point: 70°F , 21°C
Humidity: 47%
Barometer: 29.94 inHg , 1013.9 hPa
Clouds: Partly cloudy
Visibility: 10 miles , 16 km
Cloud details: Partly cloudy 7000 ft
2021/06/17 21:15 KT20 172115Z AUTO 09003KT 10SM SCT070 34/21 A2994 RMK AO2 T03420211
KBEA - Beeville Muni, Texas, USA
Distance from station: SW 51mi, 83km
Updated: Thu, 17-Jun-2021 4:15pm CDT
Clear
Clear
 Wind from S
Wind: S 6 mph , 9 km/h
Temperature: 86°F , 30°C
Heat Index: 97°F , 36°C
Dew Point: 77°F , 25°C
Humidity: 75%
Barometer: 29.94 inHg , 1013.9 hPa
Clouds: Clear
Visibility: 10 miles , 16 km
2021/06/17 21:15 KBEA 172115Z AUTO 17005KT 10SM CLR 30/25 A2994 RMK AO2 LTG DSNT SW T02950245
 
KRKP - Rockport, Texas, USA
Distance from station: S 53mi, 86km
Updated: Thu, 17-Jun-2021 3:53pm CDT
Haze, Clear
Haze, Clear
 Wind from ESE
Wind: ESE 9 mph , 15 km/h
Temperature: 90°F , 32°C
Heat Index: 107°F , 42°C
Dew Point: 79°F , 26°C
Humidity: 71%
Barometer: 29.92 inHg , 1013.2 hPa
Summary: Haze
Clouds: Clear
Visibility: 6 miles , 10 km
2021/06/17 20:53 KRKP 172053Z AUTO 12008KT 6SM HZ CLR 32/26 A2992 RMK AO2 SLP133 T03220256 56015
KPSX - Palacios, Texas, USA
Distance from station: E 55mi, 88km
Updated: Thu, 17-Jun-2021 2:52pm CDT
NOT Current
Mostly cloudy
Mostly cloudy
 Wind from ESE
Wind: ESE 10 mph , 17 km/h
Temperature: 91°F , 33°C
Heat Index: 100°F , 38°C
Dew Point: 73°F , 23°C
Humidity: 56%
Barometer: 29.93 inHg , 1013.5 hPa
Clouds: Mostly cloudy
Visibility: 10 miles , 16 km
Cloud details: Mostly cloudy 4500 ft
Mostly cloudy 6000 ft
2021/06/17 19:52 KPSX 171952Z AUTO 11009KT 10SM BKN045 BKN060 33/23 A2993 RMK AO2 SLP133 T03330228
 
KTFP - Ingleside/Tp Mcc, Texas, USA
Distance from station: S 65mi, 104km
Updated: Thu, 17-Jun-2021 4:15pm CDT
Clear
Clear
 Wind from ESE
Wind: ESE 12 mph , 19 km/h, Gust: 18 mph , 30 km/h
Temperature: 93°F , 34°C
Heat Index: 105°F , 41°C
Dew Point: 75°F , 24°C
Humidity: 56%
Barometer: 29.92 inHg , 1013.2 hPa
Clouds: Clear
Visibility: 10 miles , 16 km
2021/06/17 21:15 KTFP 172115Z AUTO 11010G16KT 10SM CLR 34/24 A2992 RMK AO2 T03360235
K66R - Columbus, Texas, USA
Distance from station: NE 66mi, 106km
Updated: Thu, 17-Jun-2021 4:15pm CDT
Partly cloudy
Partly cloudy
 Wind from E
Wind: E 5 mph , 7 km/h
Temperature: 93°F , 34°C
Heat Index: 100°F , 38°C
Dew Point: 72°F , 22°C
Humidity: 49%
Barometer: 29.94 inHg , 1013.9 hPa
Clouds: Partly cloudy
Visibility: 10 miles , 16 km
Cloud details: Partly cloudy 5500 ft
Partly cloudy 6500 ft
2021/06/17 21:15 K66R 172115Z AUTO 10004KT 10SM SCT055 SCT065 34/22 A2994 RMK AO2 T03390217
 
KARM - Wharton, Texas, USA
Distance from station: ENE 66mi, 106km
Updated: Thu, 17-Jun-2021 4:15pm CDT

 Wind from ENE
Wind: ENE 6 mph , 9 km/h
Temperature: 93°F , 34°C
Dew Point: 64°F , 18°C
Humidity: 39%
Barometer: 29.93 inHg , 1013.5 hPa
Visibility: 10 miles , 16 km
2021/06/17 21:15 KARM 172115Z AUTO 06005KT 10SM 34/18 A2993 RMK AO2 T03430182
KRAS - Port Aransas, Texas, USA
Distance from station: S 71mi, 115km
Updated: Thu, 17-Jun-2021 4:15pm CDT
Clear
Clear
 Wind from E
Wind: E 10 mph , 17 km/h
Temperature: 88°F , 31°C
Heat Index: 98°F , 37°C
Dew Point: 75°F , 24°C
Humidity: 66%
Barometer: 29.94 inHg , 1013.9 hPa
Clouds: Clear
Visibility: 10 miles , 16 km
2021/06/17 21:15 KRAS 172115Z AUTO 08009KT 10SM CLR 31/24 A2994 RMK AO2 T03130241
 
KELA - Eagle Lake, Texas, USA
Distance from station: NE 72mi, 115km
Updated: Wed, 16-Jun-2021 11:55am CDT
NOT Current
Clear
Clear
 Wind from NE
Wind: NE 6 mph , 9 km/h
Temperature: 88°F , 31°C
Heat Index: 93°F , 34°C
Dew Point: 70°F , 21°C
Humidity: 55%
Barometer: 30.01 inHg , 1016.3 hPa
Clouds: Clear
Visibility: 10 miles , 16 km
2021/06/16 16:55 KELA 161655Z AUTO 05005KT 10SM CLR 31/21 A3001 RMK AO2 T03090209
K3T5 - La Grange, Texas, USA
Distance from station: N 73mi, 118km
Updated: Thu, 17-Jun-2021 4:15pm CDT
Clear
Clear
 Wind from calm
Wind: Calm
Temperature: 95°F , 35°C
Heat Index: 101°F , 38°C
Dew Point: 70°F , 21°C
Humidity: 44%
Barometer: 29.92 inHg , 1013.2 hPa
Clouds: Clear
Visibility: 10 miles , 16 km
2021/06/17 21:15 K3T5 172115Z AUTO 00000KT 10SM CLR 35/21 A2992 RMK AO2 T03520214
 
KBYY - Bay City, Texas, USA
Distance from station: E 77mi, 124km
Updated: Thu, 17-Jun-2021 4:15pm CDT
Partly cloudy
Partly cloudy
 Wind from E
Wind: E 12 mph , 19 km/h, Gust: 16 mph , 26 km/h
Temperature: 91°F , 33°C
Heat Index: 98°F , 37°C
Dew Point: 72°F , 22°C
Humidity: 52%
Barometer: 29.92 inHg , 1013.2 hPa
Clouds: Partly cloudy
Visibility: 10 miles , 16 km
Cloud details: Partly cloudy 5000 ft
Partly cloudy 5500 ft
Partly cloudy 7000 ft
2021/06/17 21:15 KBYY 172115Z AUTO 09010G14KT 10SM SCT050 SCT055 SCT070 33/22 A2992 RMK AO2 T03340223
KCRP - Corpus Christi, Texas, USA
Distance from station: SSW 78mi, 126km
Updated: Thu, 17-Jun-2021 3:51pm CDT
Mostly cloudy
Mostly cloudy
 Wind from E
Wind: E 12 mph , 19 km/h, Gust: 20 mph , 31 km/h
Temperature: 93°F , 34°C
Heat Index: 103°F , 39°C
Dew Point: 73°F , 23°C
Humidity: 53%
Barometer: 29.93 inHg , 1013.5 hPa
Clouds: Mostly cloudy
Visibility: 10 miles , 16 km
Cloud details: Few Clouds 3600 ft
Few Clouds 5000 ft
Partly cloudy 12000 ft
Mostly cloudy 25000 ft
2021/06/17 20:51 KCRP 172051Z 08010G17KT 10SM FEW036 FEW050 SCT120 BKN250 34/23 A2993 RMK AO2 LTG DSNT NW SLP135 CB DSNT NW MOV W TCU DSNT NW-NE SW W T03440228 56010
 
KNGP - C. Christi Nas, Texas, USA
Distance from station: S 81mi, 130km
Updated: Thu, 17-Jun-2021 3:56pm CDT
Partly cloudy
Partly cloudy
 Wind from E
Wind: E 14 mph , 22 km/h
Temperature: 91°F , 33°C
Heat Index: 100°F , 38°C
Dew Point: 73°F , 23°C
Humidity: 56%
Barometer: 29.93 inHg , 1013.5 hPa
Clouds: Partly cloudy
Visibility: 10 miles , 16 km
Cloud details: Few Clouds 2500 ft
Partly cloudy 4000 ft
Partly cloudy 25000 ft
2021/06/17 20:56 KNGP 172056Z 09012KT 10SM FEW025 SCT040 SCT250 33/23 A2993 RMK AO2 SLP134 CB DSNT SE TCU DSNT S AND W T2 SET T03280233 56009 $
KRBO - Robstown/Nueces, Texas, USA
Distance from station: SSW 81mi, 130km
Updated: Thu, 17-Jun-2021 4:15pm CDT
Clear
Clear
 Wind from E
Wind: E 12 mph , 19 km/h, Gust: 18 mph , 30 km/h
Temperature: 95°F , 35°C
Heat Index: 103°F , 39°C
Dew Point: 72°F , 22°C
Humidity: 47%
Barometer: 29.94 inHg , 1013.9 hPa
Clouds: Clear
Visibility: 10 miles , 16 km
2021/06/17 21:15 KRBO 172115Z AUTO 10010G16KT 10SM CLR 35/22 A2994 RMK AO2 LTG DSNT NW T03540217
 
KBAZ - New Braunfels, Texas, USA
Distance from station: NW 81mi, 131km
Updated: Thu, 17-Jun-2021 3:51pm CDT
Clear
Clear
 Wind from E
Wind: E 9 mph , 15 km/h
Temperature: 95°F , 35°C
Dew Point: 66°F , 19°C
Humidity: 39%
Barometer: 29.95 inHg , 1014.2 hPa
Clouds: Clear
Visibility: 10 miles , 16 km
2021/06/17 20:51 KBAZ 172051Z AUTO 09008KT 10SM CLR 35/19 A2995 RMK AO2 SLP131 T03500194 56020
KRND - Randolph Afb, Texas, USA
Distance from station: NW 82mi, 132km
Updated: Thu, 17-Jun-2021 3:56pm CDT
Clear
Clear
 Wind from SE
Wind: SE 7 mph , 11 km/h
Temperature: 93°F , 34°C
Dew Point: 64°F , 18°C
Humidity: 39%
Barometer: 29.95 inHg , 1014.2 hPa
Clouds: Clear
Visibility: 10 miles , 16 km
2021/06/17 20:56 KRND 172056Z AUTO 13006KT 10SM CLR 34/18 A2995 RMK AO2 SLP132 T03380183 57019
 
KHYI - San Marcos, Texas, USA
Distance from station: NNW 84mi, 135km
Updated: Thu, 17-Jun-2021 1:56pm CDT
NOT Current
Few Clouds
Few Clouds
 Wind from ESE
Wind: ESE 5 mph , 7 km/h
Temperature: 91°F , 33°C
Heat Index: 96°F , 36°C
Dew Point: 70°F , 21°C
Humidity: 49%
Barometer: 30.00 inHg , 1015.9 hPa
Clouds: Few Clouds
Visibility: 10 miles , 16 km
Cloud details: Few Clouds 5500 ft
2021/06/17 18:56 KHYI 171856Z AUTO 11004KT 10SM FEW055 33/21 A3000 RMK AO2 SLP150 T03330211
KPEZ - Pleasanton Muni, Texas, USA
Distance from station: W 84mi, 135km
Updated: Thu, 17-Jun-2021 4:15pm CDT
Partly cloudy
Partly cloudy
 Wind from SE
Wind: SE 6 mph , 9 km/h
Temperature: 97°F , 36°C
Dew Point: 64°F , 18°C
Humidity: 34%
Barometer: 29.95 inHg , 1014.2 hPa
Clouds: Partly cloudy
Visibility: 10 miles , 16 km
Cloud details: Partly cloudy 6500 ft
Partly cloudy 8000 ft
2021/06/17 21:15 KPEZ 172115Z AUTO 13005KT 10SM SCT065 SCT080 36/18 A2995 RMK AO2 T03550181